createdAt,value
2023-03-29T00:02:07.779Z,99.90
2023-03-29T00:04:35.386Z,99.90
2023-03-29T00:07:04.403Z,99.90
2023-03-29T00:09:33.426Z,99.90
2023-03-29T00:12:01.615Z,99.90
2023-03-29T00:14:30.965Z,99.90
2023-03-29T00:16:58.645Z,99.60
2023-03-29T00:19:25.934Z,99.20
2023-03-29T00:21:53.074Z,98.80
2023-03-29T00:24:21.345Z,98.30
2023-03-29T00:26:48.734Z,98.00
2023-03-29T00:29:16.086Z,97.50
2023-03-29T00:31:46.014Z,97.20
2023-03-29T00:34:13.141Z,96.60
2023-03-29T00:36:41.459Z,96.60
2023-03-29T00:39:08.350Z,96.40
2023-03-29T00:41:35.554Z,95.20
2023-03-29T00:44:04.681Z,95.80
2023-03-29T00:46:31.981Z,95.90
2023-03-29T00:49:07.244Z,95.60
2023-03-29T00:51:36.541Z,95.70
2023-03-29T00:54:07.264Z,95.80
2023-03-29T00:56:40.470Z,98.10
2023-03-29T00:59:13.741Z,96.60
2023-03-29T01:02:03.328Z,94.10
2023-03-29T01:04:50.833Z,96.20
2023-03-29T01:07:32.755Z,97.90
2023-03-29T01:10:09.208Z,98.90
2023-03-29T01:12:41.882Z,98.50
2023-03-29T01:15:14.134Z,98.40
2023-03-29T01:17:43.487Z,99.90
2023-03-29T01:20:17.566Z,99.90
2023-03-29T01:23:38.902Z,99.60
2023-03-29T01:26:20.831Z,99.90
2023-03-29T01:28:59.108Z,99.90
2023-03-29T01:31:37.203Z,99.90
2023-03-29T01:34:20.614Z,99.90
2023-03-29T01:36:54.750Z,99.90
2023-03-29T01:39:22.102Z,99.90
2023-03-29T01:42:23.712Z,99.90
2023-03-29T01:44:56.572Z,99.90
2023-03-29T01:47:47.596Z,99.90
2023-03-29T01:50:37.880Z,99.90
2023-03-29T01:53:20.595Z,99.90
2023-03-29T01:55:56.542Z,99.90
2023-03-29T01:58:29.469Z,99.90
2023-03-29T02:00:58.153Z,99.90
2023-03-29T02:03:28.194Z,99.90
2023-03-29T02:05:56.965Z,99.90
2023-03-29T02:08:24.846Z,99.90
2023-03-29T02:10:52.388Z,99.90
2023-03-29T02:13:20.124Z,99.90
2023-03-29T02:15:48.361Z,99.90
2023-03-29T02:18:18.603Z,99.90
2023-03-29T02:20:48.682Z,99.90
2023-03-29T02:23:36.357Z,99.90
2023-03-29T02:26:06.752Z,99.90
2023-03-29T02:28:33.773Z,98.70
2023-03-29T02:31:05.416Z,97.90
2023-03-29T02:33:39.065Z,97.60
2023-03-29T02:36:30.651Z,96.60
2023-03-29T02:39:00.681Z,96.00
2023-03-29T02:41:28.676Z,95.30
2023-03-29T02:43:57.091Z,94.60
2023-03-29T02:46:24.735Z,93.50
2023-03-29T02:48:54.679Z,93.70
2023-03-29T02:51:29.211Z,93.20
2023-03-29T02:54:15.585Z,92.60
2023-03-29T02:56:49.216Z,91.80
2023-03-29T02:59:19.482Z,91.40
2023-03-29T03:01:46.616Z,91.10
2023-03-29T03:04:13.609Z,90.60
2023-03-29T03:06:41.284Z,90.60
2023-03-29T03:09:09.723Z,91.00
2023-03-29T03:11:36.933Z,91.00
2023-03-29T03:14:04.116Z,90.30
2023-03-29T03:16:31.488Z,90.70
2023-03-29T03:18:59.019Z,90.00
2023-03-29T03:21:28.175Z,90.10
2023-03-29T03:23:55.783Z,90.30
2023-03-29T03:26:24.974Z,90.30
2023-03-29T03:28:51.818Z,90.60
2023-03-29T03:31:19.641Z,91.20
2023-03-29T03:33:46.655Z,90.70
2023-03-29T03:36:13.980Z,91.20
2023-03-29T03:38:41.368Z,90.40
2023-03-29T03:41:09.092Z,90.80
2023-03-29T03:43:36.330Z,91.60
2023-03-29T03:46:03.297Z,91.00
2023-03-29T03:48:30.275Z,91.00
2023-03-29T03:50:58.486Z,91.00
2023-03-29T03:53:27.290Z,91.60
2023-03-29T03:55:58.036Z,91.80
2023-03-29T03:58:24.916Z,91.80
2023-03-29T04:00:51.986Z,91.40
2023-03-29T04:03:19.043Z,91.60
2023-03-29T04:05:47.167Z,91.20
2023-03-29T04:08:15.096Z,91.60
2023-03-29T04:10:42.453Z,91.10
2023-03-29T04:13:09.631Z,91.20
2023-03-29T04:15:38.736Z,91.20
2023-03-29T04:18:07.414Z,91.50
2023-03-29T04:20:34.716Z,91.80
2023-03-29T04:23:01.959Z,91.60
2023-03-29T04:25:29.589Z,91.70
2023-03-29T04:27:56.694Z,91.60
2023-03-29T04:30:23.825Z,91.30
2023-03-29T04:32:50.739Z,91.20
2023-03-29T04:35:17.954Z,91.20
2023-03-29T04:37:44.807Z,91.50
2023-03-29T04:40:14.459Z,91.90
2023-03-29T04:42:45.472Z,91.90
2023-03-29T04:45:14.262Z,91.40
2023-03-29T04:47:42.095Z,91.30
2023-03-29T04:50:09.290Z,91.90
2023-03-29T04:52:36.205Z,91.90
2023-03-29T04:55:04.929Z,91.70
2023-03-29T04:57:31.834Z,92.00
2023-03-29T04:59:58.999Z,91.80
2023-03-29T05:02:26.285Z,91.80
2023-03-29T05:04:53.208Z,92.20
2023-03-29T05:07:20.073Z,92.00
2023-03-29T05:09:47.378Z,91.80
2023-03-29T05:12:14.341Z,91.80
2023-03-29T05:14:41.344Z,91.80
2023-03-29T05:17:08.296Z,91.50
2023-03-29T05:19:36.485Z,91.80
2023-03-29T05:22:03.366Z,91.90
2023-03-29T05:24:30.198Z,91.80
2023-03-29T05:26:57.090Z,92.60
2023-03-29T05:29:24.078Z,92.70
2023-03-29T05:31:52.553Z,92.80
2023-03-29T05:34:20.096Z,92.60
2023-03-29T05:36:46.973Z,92.80
2023-03-29T05:39:14.052Z,93.10
2023-03-29T05:41:41.647Z,93.40
2023-03-29T05:44:08.553Z,93.10
2023-03-29T05:46:35.872Z,94.70
2023-03-29T05:49:03.449Z,93.80
2023-03-29T05:51:30.249Z,93.70
2023-03-29T05:53:57.088Z,94.60
2023-03-29T05:56:24.406Z,94.50
2023-03-29T05:58:55.063Z,93.90
2023-03-29T06:01:22.614Z,94.00
2023-03-29T06:03:50.223Z,93.90
2023-03-29T06:06:17.713Z,94.20
2023-03-29T06:08:45.120Z,94.60
2023-03-29T06:11:13.421Z,94.50
2023-03-29T06:13:41.481Z,94.20
2023-03-29T06:16:10.184Z,94.20
2023-03-29T06:18:40.215Z,94.40
2023-03-29T06:21:09.323Z,94.20
2023-03-29T06:23:36.979Z,94.20
2023-03-29T06:26:05.632Z,94.00
2023-03-29T06:28:32.988Z,93.90
2023-03-29T06:31:02.961Z,93.50
2023-03-29T06:33:32.408Z,93.40
2023-03-29T06:35:59.388Z,93.00
2023-03-29T06:38:28.450Z,92.50
2023-03-29T06:41:04.381Z,92.60
2023-03-29T06:43:33.398Z,92.50
2023-03-29T06:46:01.095Z,92.60
2023-03-29T06:48:28.429Z,92.30
2023-03-29T06:50:55.481Z,91.90
2023-03-29T06:53:22.735Z,92.00
2023-03-29T06:55:51.941Z,91.80
2023-03-29T06:58:18.949Z,91.90
2023-03-29T07:00:47.507Z,92.00
2023-03-29T07:03:20.299Z,91.30
2023-03-29T07:05:48.046Z,91.60
2023-03-29T07:08:16.555Z,91.10
2023-03-29T07:10:47.469Z,90.70
2023-03-29T07:13:15.571Z,90.70
2023-03-29T07:15:43.722Z,90.10
2023-03-29T07:18:12.541Z,90.50
2023-03-29T07:20:40.527Z,90.50
2023-03-29T07:23:09.393Z,90.70
2023-03-29T07:25:38.387Z,90.80
2023-03-29T07:28:06.193Z,91.10
2023-03-29T07:30:33.482Z,90.60
2023-03-29T07:33:00.656Z,91.00
2023-03-29T07:35:28.767Z,91.40
2023-03-29T07:37:55.931Z,91.00
2023-03-29T07:40:24.348Z,91.50
2023-03-29T07:42:56.464Z,91.40
2023-03-29T07:45:28.160Z,91.00
2023-03-29T07:47:57.734Z,90.90
2023-03-29T07:50:25.335Z,90.70
2023-03-29T07:52:52.187Z,89.10
2023-03-29T07:55:19.757Z,88.70
2023-03-29T07:57:46.605Z,89.30
2023-03-29T08:00:17.571Z,88.50
2023-03-29T08:02:46.601Z,87.70
2023-03-29T08:05:23.201Z,88.00
2023-03-29T08:07:56.412Z,88.60
2023-03-29T08:10:23.715Z,87.40
2023-03-29T08:12:52.450Z,87.50
2023-03-29T08:15:19.602Z,86.80
2023-03-29T08:17:46.634Z,86.10
2023-03-29T08:20:16.300Z,85.70
2023-03-29T08:22:43.732Z,84.80
2023-03-29T08:25:12.008Z,83.90
2023-03-29T08:27:39.662Z,83.90
2023-03-29T08:30:09.592Z,82.90
2023-03-29T08:32:37.600Z,83.20
2023-03-29T08:35:07.906Z,82.80
2023-03-29T08:37:35.242Z,81.50
2023-03-29T08:40:02.694Z,79.70
2023-03-29T08:42:54.972Z,79.60
2023-03-29T08:45:35.428Z,79.10
2023-03-29T08:48:05.360Z,78.60
2023-03-29T08:50:39.244Z,78.60
2023-03-29T08:53:15.529Z,77.90
2023-03-29T08:55:45.794Z,80.60
2023-03-29T08:58:17.859Z,78.60
2023-03-29T09:00:49.628Z,79.20
2023-03-29T09:03:22.749Z,78.80
2023-03-29T09:05:57.791Z,78.70
2023-03-29T09:08:25.572Z,78.20
2023-03-29T09:11:28.114Z,78.90
2023-03-29T09:14:13.316Z,78.60
2023-03-29T09:17:05.969Z,78.50
2023-03-29T09:19:48.979Z,78.00
2023-03-29T09:22:28.023Z,78.80
2023-03-29T09:25:13.305Z,78.80
2023-03-29T09:27:54.567Z,77.90
2023-03-29T09:31:03.858Z,78.80
2023-03-29T09:33:44.995Z,77.80
2023-03-29T09:36:23.970Z,76.40
2023-03-29T09:38:54.466Z,76.80
2023-03-29T09:41:26.519Z,76.60
2023-03-29T09:43:55.466Z,75.90
2023-03-29T09:46:47.595Z,76.60
2023-03-29T09:49:20.600Z,76.90
2023-03-29T09:51:50.230Z,76.50
2023-03-29T09:54:17.297Z,76.70
2023-03-29T09:56:44.286Z,77.70
2023-03-29T09:59:12.417Z,76.50
2023-03-29T10:01:41.884Z,75.80
2023-03-29T10:04:10.431Z,75.60
2023-03-29T10:06:43.271Z,75.80
2023-03-29T10:09:23.307Z,75.40
2023-03-29T10:11:54.766Z,78.20
2023-03-29T10:14:46.483Z,77.60
2023-03-29T10:17:24.217Z,79.10
2023-03-29T10:19:55.711Z,78.70
2023-03-29T10:22:31.902Z,79.70
2023-03-29T10:24:58.918Z,79.90
2023-03-29T10:27:30.686Z,80.60
2023-03-29T10:29:59.887Z,80.50
2023-03-29T10:32:36.968Z,80.80
2023-03-29T10:35:12.470Z,81.50
2023-03-29T10:37:50.133Z,81.50
2023-03-29T10:40:27.853Z,81.10
2023-03-29T10:43:01.991Z,80.30
2023-03-29T10:45:31.669Z,81.50
2023-03-29T10:47:59.097Z,79.70
2023-03-29T10:50:33.450Z,80.50
2023-03-29T10:53:02.402Z,81.00
2023-03-29T10:55:41.088Z,80.30
2023-03-29T10:58:17.709Z,80.30
2023-03-29T11:00:57.090Z,80.10
2023-03-29T11:03:55.601Z,79.80
2023-03-29T11:06:37.512Z,80.00
2023-03-29T11:09:25.168Z,77.30
2023-03-29T11:12:16.385Z,77.60
2023-03-29T11:15:17.738Z,77.50
2023-03-29T11:18:19.801Z,77.60
2023-03-29T11:21:10.188Z,76.50
2023-03-29T11:23:49.850Z,77.70
2023-03-29T11:26:36.941Z,76.50
2023-03-29T11:29:36.214Z,76.80
2023-03-29T11:32:23.356Z,76.10
2023-03-29T11:35:21.312Z,75.10
2023-03-29T11:37:51.395Z,75.20
2023-03-29T11:40:39.859Z,74.80
2023-03-29T11:43:15.281Z,74.40
2023-03-29T11:46:11.710Z,73.90
2023-03-29T11:48:51.660Z,74.20
2023-03-29T11:51:34.594Z,74.60
2023-03-29T11:54:27.697Z,73.00
2023-03-29T11:57:13.137Z,73.80
2023-03-29T11:59:58.581Z,71.60
2023-03-29T12:02:49.433Z,72.70
2023-03-29T12:05:32.818Z,74.00
2023-03-29T12:08:09.236Z,73.00
2023-03-29T12:10:41.957Z,73.00
2023-03-29T12:13:17.689Z,74.10
2023-03-29T12:16:08.288Z,72.80
2023-03-29T12:18:45.438Z,73.30
2023-03-29T12:21:21.648Z,73.50
2023-03-29T12:23:49.692Z,71.50
2023-03-29T12:26:52.614Z,72.10
2023-03-29T12:29:50.587Z,72.60
2023-03-29T12:32:20.377Z,72.80
2023-03-29T12:34:58.493Z,73.80
2023-03-29T12:37:25.281Z,73.60
2023-03-29T12:39:53.151Z,74.00
2023-03-29T12:42:22.543Z,73.40
2023-03-29T12:44:59.248Z,74.20
2023-03-29T12:47:33.833Z,73.80
2023-03-29T12:50:01.847Z,73.50
2023-03-29T12:52:36.619Z,73.80
2023-03-29T12:55:20.767Z,75.00
2023-03-29T12:58:38.753Z,75.50
2023-03-29T13:01:27.173Z,75.00
2023-03-29T13:04:00.128Z,77.20
2023-03-29T13:06:54.204Z,77.50
2023-03-29T13:09:48.973Z,76.20
2023-03-29T13:12:15.908Z,76.30
2023-03-29T13:14:46.483Z,78.20
2023-03-29T13:17:41.543Z,77.70
2023-03-29T13:20:14.518Z,77.80
2023-03-29T13:23:09.460Z,76.70
2023-03-29T13:26:11.515Z,77.70
2023-03-29T13:29:07.210Z,78.30
2023-03-29T13:31:56.256Z,78.00
2023-03-29T13:34:41.310Z,78.00
2023-03-29T13:37:46.418Z,77.30
2023-03-29T13:40:32.918Z,77.60
2023-03-29T13:43:21.191Z,77.10
2023-03-29T13:45:57.005Z,78.10
2023-03-29T13:48:31.949Z,78.40
2023-03-29T13:51:08.269Z,78.20
2023-03-29T13:53:55.095Z,78.00
2023-03-29T13:56:51.515Z,78.40
2023-03-29T13:59:27.399Z,78.10
2023-03-29T14:02:00.543Z,77.10
2023-03-29T14:04:45.023Z,77.30
2023-03-29T14:07:15.029Z,77.40
2023-03-29T14:09:45.946Z,77.40
2023-03-29T14:12:14.900Z,77.80
2023-03-29T14:14:58.329Z,78.40
2023-03-29T14:17:26.861Z,77.60
2023-03-29T14:19:57.655Z,78.20
2023-03-29T14:22:29.048Z,78.00
2023-03-29T14:24:58.324Z,76.50
2023-03-29T14:27:29.974Z,77.30
2023-03-29T14:29:56.993Z,77.60
2023-03-29T14:32:31.846Z,77.10
2023-03-29T14:35:01.131Z,78.20
2023-03-29T14:37:29.989Z,78.10
2023-03-29T14:39:59.069Z,76.10
2023-03-29T14:42:28.032Z,76.30
2023-03-29T14:45:07.154Z,75.60
2023-03-29T14:47:34.468Z,74.30
2023-03-29T14:50:01.937Z,75.20
2023-03-29T14:52:30.554Z,73.80
2023-03-29T14:55:00.847Z,74.70
2023-03-29T14:57:34.256Z,74.90
2023-03-29T15:00:26.870Z,75.60
2023-03-29T15:02:55.170Z,76.20
2023-03-29T15:05:37.223Z,75.80
2023-03-29T15:08:07.335Z,75.60
2023-03-29T15:10:36.679Z,75.60
2023-03-29T15:13:06.114Z,76.80
2023-03-29T15:15:36.401Z,77.50
2023-03-29T15:18:07.963Z,76.30
2023-03-29T15:20:38.265Z,77.10
2023-03-29T15:23:17.298Z,77.40
2023-03-29T15:25:52.126Z,77.60
2023-03-29T15:28:33.762Z,77.50
2023-03-29T15:31:13.076Z,77.60
2023-03-29T15:33:41.867Z,76.90
2023-03-29T15:36:10.857Z,77.10
2023-03-29T15:41:10.582Z,77.30
2023-03-29T15:43:37.457Z,76.70
2023-03-29T15:46:04.972Z,77.20
2023-03-29T15:48:33.826Z,77.10
2023-03-29T15:51:04.800Z,77.80
2023-03-29T15:53:33.205Z,77.40
2023-03-29T15:56:02.502Z,77.00
2023-03-29T15:58:32.449Z,76.80
2023-03-29T16:01:11.230Z,78.10
2023-03-29T16:03:39.232Z,76.80
2023-03-29T16:06:06.617Z,77.20
2023-03-29T16:08:33.464Z,77.60
2023-03-29T16:11:00.447Z,77.30
2023-03-29T16:13:27.276Z,77.30
2023-03-29T16:15:54.192Z,77.10
2023-03-29T16:18:21.169Z,77.70
2023-03-29T16:20:48.004Z,77.50
2023-03-29T16:23:14.909Z,78.10
2023-03-29T16:25:41.787Z,78.80
2023-03-29T16:28:10.052Z,78.50
2023-03-29T16:30:37.725Z,78.70
2023-03-29T16:33:08.145Z,78.70
2023-03-29T16:35:40.012Z,80.30
2023-03-29T16:38:08.067Z,79.70
2023-03-29T16:40:35.928Z,79.00
2023-03-29T16:43:02.992Z,78.20
2023-03-29T16:45:30.015Z,78.00
2023-03-29T16:47:57.161Z,78.00
2023-03-29T16:50:24.307Z,78.20
2023-03-29T16:52:54.228Z,79.80
2023-03-29T16:55:21.043Z,79.10
2023-03-29T16:57:48.559Z,79.50
2023-03-29T17:00:19.853Z,79.40
2023-03-29T17:02:49.790Z,78.80
2023-03-29T17:05:18.516Z,78.70
2023-03-29T17:07:45.747Z,79.00
2023-03-29T17:10:13.082Z,78.50
2023-03-29T17:12:40.532Z,78.50
2023-03-29T17:15:08.016Z,78.30
2023-03-29T17:17:35.568Z,79.00
2023-03-29T17:20:02.459Z,80.10
2023-03-29T17:22:29.311Z,81.70
2023-03-29T17:24:56.175Z,80.60
2023-03-29T17:27:23.043Z,79.80
2023-03-29T17:29:49.909Z,81.70
2023-03-29T17:32:17.043Z,81.50
2023-03-29T17:34:43.972Z,81.40
2023-03-29T17:37:10.921Z,82.20
2023-03-29T17:39:37.916Z,83.30
2023-03-29T17:42:05.352Z,87.10
2023-03-29T17:44:33.330Z,89.90
2023-03-29T17:47:03.168Z,91.30
2023-03-29T17:49:30.026Z,91.60
2023-03-29T17:51:56.850Z,91.50
2023-03-29T17:54:24.136Z,91.20
2023-03-29T18:04:18.354Z,91.50
2023-03-29T18:06:45.752Z,91.30
2023-03-29T18:09:13.278Z,91.00
2023-03-29T18:11:40.166Z,91.70
2023-03-29T18:14:07.477Z,92.20
2023-03-29T18:16:34.496Z,92.90
2023-03-29T18:19:01.599Z,92.10
2023-03-29T18:21:28.541Z,90.90
2023-03-29T18:23:56.898Z,90.80
2023-03-29T18:26:25.111Z,90.20
2023-03-29T18:28:52.647Z,90.30
2023-03-29T18:31:20.239Z,90.20
2023-03-29T18:33:47.617Z,89.60
2023-03-29T18:36:15.007Z,89.30
2023-03-29T18:38:43.106Z,89.50
2023-03-29T18:41:12.173Z,90.10
2023-03-29T18:43:39.907Z,90.00
2023-03-29T18:46:08.042Z,90.20
2023-03-29T18:48:41.913Z,90.50
2023-03-29T18:51:10.542Z,90.60
2023-03-29T18:53:39.202Z,90.80
2023-03-29T18:56:06.644Z,91.20
2023-03-29T18:58:34.338Z,91.30
2023-03-29T19:01:06.222Z,91.50
2023-03-29T19:03:34.910Z,91.40
2023-03-29T19:06:02.847Z,91.30
2023-03-29T19:08:30.024Z,91.90
2023-03-29T19:11:05.824Z,92.30
2023-03-29T19:13:32.759Z,92.60
2023-03-29T19:15:59.729Z,93.00
2023-03-29T19:18:27.582Z,93.60
2023-03-29T19:20:54.526Z,94.10
2023-03-29T19:23:22.764Z,94.00
2023-03-29T19:25:53.872Z,94.00
2023-03-29T19:28:20.791Z,93.90
2023-03-29T19:30:47.737Z,94.00
2023-03-29T19:33:14.803Z,94.60
2023-03-29T19:35:42.092Z,94.50
2023-03-29T19:38:09.120Z,94.70
2023-03-29T19:40:36.607Z,94.40
2023-03-29T19:43:04.046Z,94.40
2023-03-29T19:45:30.995Z,94.60
2023-03-29T19:48:02.576Z,94.50
2023-03-29T19:50:31.647Z,94.40
2023-03-29T19:52:58.722Z,94.40
2023-03-29T19:55:26.786Z,94.30
2023-03-29T19:57:53.647Z,94.30
2023-03-29T20:00:24.488Z,94.30
2023-03-29T20:02:52.538Z,94.20
2023-03-29T20:05:20.203Z,94.40
2023-03-29T20:07:47.200Z,94.50
2023-03-29T20:10:14.238Z,94.40
2023-03-29T20:12:41.196Z,94.70
2023-03-29T20:15:08.828Z,95.00
2023-03-29T20:17:35.800Z,95.00
2023-03-29T20:20:08.250Z,95.30
2023-03-29T20:22:35.324Z,95.50
2023-03-29T20:25:02.175Z,95.60
2023-03-29T20:27:29.482Z,95.80
2023-03-29T20:29:56.837Z,96.30
2023-03-29T20:32:24.708Z,96.40
2023-03-29T20:34:55.155Z,96.50
2023-03-29T20:37:23.580Z,96.50
2023-03-29T20:39:52.537Z,96.70
2023-03-29T20:42:25.417Z,96.80
2023-03-29T20:44:57.537Z,96.80
2023-03-29T20:47:27.469Z,97.00
2023-03-29T20:49:54.443Z,97.30
2023-03-29T20:52:23.211Z,97.40
2023-03-29T20:54:50.712Z,97.50
2023-03-29T20:57:20.066Z,97.50
2023-03-29T20:59:49.207Z,97.80
2023-03-29T21:02:21.196Z,97.80
2023-03-29T21:04:52.304Z,98.00
2023-03-29T21:07:21.372Z,97.80
2023-03-29T21:09:49.867Z,98.20
2023-03-29T21:12:17.471Z,98.40
2023-03-29T21:14:44.721Z,98.20
2023-03-29T21:17:11.822Z,98.00
2023-03-29T21:19:39.468Z,98.20
2023-03-29T21:22:06.748Z,98.20
2023-03-29T21:24:36.376Z,98.20
2023-03-29T21:27:03.294Z,98.50
2023-03-29T21:29:30.207Z,98.50
2023-03-29T21:31:57.191Z,99.10
2023-03-29T21:34:24.193Z,99.10
2023-03-29T21:36:51.372Z,99.20
2023-03-29T21:39:18.357Z,99.10
2023-03-29T21:41:45.285Z,98.90
2023-03-29T21:44:12.784Z,98.80
2023-03-29T21:46:39.866Z,99.00
2023-03-29T21:49:06.797Z,99.20
2023-03-29T21:51:33.679Z,99.10
2023-03-29T21:54:00.644Z,99.60
2023-03-29T21:56:28.196Z,99.60
2023-03-29T21:58:55.236Z,99.60
2023-03-29T22:01:22.411Z,99.40
2023-03-29T22:03:49.284Z,99.10
2023-03-29T22:06:16.295Z,99.30
2023-03-29T22:08:43.396Z,99.20
2023-03-29T22:11:14.330Z,99.10
2023-03-29T22:13:43.137Z,98.90
2023-03-29T22:16:16.876Z,99.00
2023-03-29T22:18:49.157Z,99.10
2023-03-29T22:21:18.809Z,98.80
2023-03-29T22:23:48.225Z,98.90
2023-03-29T22:26:16.970Z,98.60
2023-03-29T22:28:44.096Z,98.50
2023-03-29T22:31:17.242Z,98.40
2023-03-29T22:33:45.103Z,98.60
2023-03-29T22:36:15.812Z,98.80
2023-03-29T22:38:42.840Z,98.60
2023-03-29T22:41:10.140Z,99.20
2023-03-29T22:43:37.064Z,99.70
2023-03-29T22:46:05.894Z,99.90
2023-03-29T22:48:33.396Z,99.90
2023-03-29T22:51:00.728Z,99.90
2023-03-29T22:53:27.874Z,99.90
2023-03-29T22:55:55.125Z,99.90
2023-03-29T22:58:22.149Z,99.90
2023-03-29T23:00:49.779Z,99.90
2023-03-29T23:03:16.745Z,99.90
2023-03-29T23:06:02.129Z,99.90
2023-03-29T23:08:31.022Z,99.90
2023-03-29T23:10:58.515Z,99.90
2023-03-29T23:13:28.577Z,99.90
2023-03-29T23:15:58.854Z,99.90
2023-03-29T23:18:27.809Z,99.90
2023-03-29T23:20:56.713Z,99.90
2023-03-29T23:23:25.090Z,99.90
2023-03-29T23:25:53.083Z,99.90
2023-03-29T23:28:23.688Z,99.90
2023-03-29T23:31:06.874Z,99.90
2023-03-29T23:33:35.930Z,99.90
2023-03-29T23:36:04.925Z,99.90
2023-03-29T23:38:34.304Z,99.90
2023-03-29T23:41:03.652Z,99.90
2023-03-29T23:43:33.662Z,99.90
2023-03-29T23:46:08.115Z,99.90
2023-03-29T23:48:35.036Z,99.90
2023-03-29T23:51:03.018Z,99.90
2023-03-29T23:53:31.257Z,99.90
2023-03-29T23:56:03.472Z,99.90
2023-03-29T23:58:32.920Z,99.90
